createdAt,value
2023-03-19T00:00:44.913Z,0
2023-03-19T00:02:01.059Z,0
2023-03-19T00:03:17.186Z,0
2023-03-19T00:04:33.317Z,0
2023-03-19T00:05:49.463Z,0
2023-03-19T00:07:05.592Z,0
2023-03-19T00:08:21.733Z,0
2023-03-19T00:09:37.867Z,0
2023-03-19T00:10:54.005Z,0
2023-03-19T00:12:10.145Z,0
2023-03-19T00:13:26.283Z,0
2023-03-19T00:14:42.414Z,0
2023-03-19T00:15:58.557Z,0
2023-03-19T00:17:14.689Z,0
2023-03-19T00:18:30.823Z,0
2023-03-19T00:19:46.967Z,0
2023-03-19T00:21:03.108Z,0
2023-03-19T00:22:19.299Z,0
2023-03-19T00:23:34.522Z,0
2023-03-19T00:24:49.735Z,0
2023-03-19T00:26:05.861Z,0
2023-03-19T00:27:22.007Z,0
2023-03-19T00:28:38.131Z,0
2023-03-19T00:29:54.278Z,0
2023-03-19T00:31:10.427Z,0
2023-03-19T00:32:26.551Z,0
2023-03-19T00:33:42.688Z,0
2023-03-19T00:34:58.810Z,0
2023-03-19T00:36:14.960Z,0
2023-03-19T00:37:31.093Z,0
2023-03-19T00:38:47.235Z,0
2023-03-19T00:40:03.364Z,0
2023-03-19T00:41:19.502Z,0
2023-03-19T00:42:35.639Z,0
2023-03-19T00:43:51.786Z,0
2023-03-19T00:45:07.924Z,0
2023-03-19T00:46:24.051Z,0
2023-03-19T00:47:40.187Z,0
2023-03-19T00:48:56.335Z,0
2023-03-19T00:50:12.455Z,0
2023-03-19T00:51:28.607Z,0
2023-03-19T00:52:44.726Z,0
2023-03-19T00:54:00.858Z,0
2023-03-19T00:55:17.022Z,0
2023-03-19T00:56:33.198Z,0
2023-03-19T00:57:48.438Z,0
2023-03-19T00:59:03.660Z,0
2023-03-19T01:00:19.787Z,0
2023-03-19T01:01:35.919Z,0
2023-03-19T01:02:52.057Z,0
2023-03-19T01:04:08.196Z,0
2023-03-19T01:05:24.333Z,0
2023-03-19T01:06:40.459Z,0
2023-03-19T01:07:56.603Z,0
2023-03-19T01:09:12.742Z,0
2023-03-19T01:10:28.861Z,0
2023-03-19T01:11:45.014Z,0
2023-03-19T01:13:01.146Z,0
2023-03-19T01:14:17.286Z,0
2023-03-19T01:15:33.420Z,0
2023-03-19T01:16:49.556Z,0
2023-03-19T01:18:05.701Z,0
2023-03-19T01:19:21.823Z,0
2023-03-19T01:20:37.966Z,0
2023-03-19T01:21:54.090Z,0
2023-03-19T01:23:10.232Z,0
2023-03-19T01:24:26.389Z,0
2023-03-19T01:25:42.511Z,0
2023-03-19T01:26:58.648Z,0
2023-03-19T01:28:14.781Z,0
2023-03-19T01:29:30.905Z,0
2023-03-19T01:30:47.114Z,0
2023-03-19T01:32:02.359Z,0
2023-03-19T01:33:18.544Z,0
2023-03-19T01:34:33.750Z,0
2023-03-19T01:35:49.894Z,0
2023-03-19T01:37:06.030Z,0
2023-03-19T01:38:22.155Z,0
2023-03-19T01:39:38.291Z,0
2023-03-19T01:40:54.440Z,0
2023-03-19T01:42:10.580Z,0
2023-03-19T01:43:26.699Z,0
2023-03-19T01:44:42.836Z,0
2023-03-19T01:45:58.967Z,0
2023-03-19T01:47:15.126Z,0
2023-03-19T01:48:31.262Z,0
2023-03-19T01:49:47.383Z,0
2023-03-19T01:51:03.521Z,0
2023-03-19T01:52:19.654Z,0
2023-03-19T01:53:35.806Z,0
2023-03-19T01:54:51.935Z,0
2023-03-19T01:56:08.067Z,0
2023-03-19T01:57:24.204Z,0
2023-03-19T01:58:40.339Z,0
2023-03-19T01:59:56.476Z,0
2023-03-19T02:01:12.627Z,0
2023-03-19T02:02:28.750Z,0
2023-03-19T02:03:44.881Z,0
2023-03-19T02:05:01.013Z,0
2023-03-19T02:06:17.228Z,0
2023-03-19T02:07:32.482Z,0
2023-03-19T02:08:47.693Z,0
2023-03-19T02:10:03.842Z,0
2023-03-19T02:11:19.969Z,0
2023-03-19T02:12:36.099Z,0
2023-03-19T02:13:52.232Z,0
2023-03-19T02:15:08.371Z,0
2023-03-19T02:16:24.508Z,0
2023-03-19T02:17:40.655Z,0
2023-03-19T02:18:56.791Z,0
2023-03-19T02:20:12.914Z,0
2023-03-19T02:21:29.040Z,0
2023-03-19T02:22:45.203Z,0
2023-03-19T02:24:01.327Z,0
2023-03-19T02:25:17.459Z,0
2023-03-19T02:26:33.591Z,0
2023-03-19T02:27:49.730Z,0
2023-03-19T02:29:05.879Z,0
2023-03-19T02:30:22.012Z,0
2023-03-19T02:31:38.150Z,0
2023-03-19T02:32:54.284Z,0
2023-03-19T02:34:10.417Z,0
2023-03-19T02:35:26.560Z,0
2023-03-19T02:36:42.701Z,0
2023-03-19T02:37:58.818Z,0
2023-03-19T02:39:14.956Z,0
2023-03-19T02:40:31.143Z,0
2023-03-19T02:41:46.395Z,0
2023-03-19T02:43:01.588Z,0
2023-03-19T02:44:16.752Z,0
2023-03-19T02:45:32.877Z,0
2023-03-19T02:46:49.007Z,0
2023-03-19T02:48:05.143Z,0
2023-03-19T02:49:21.292Z,0
2023-03-19T02:50:37.429Z,0
2023-03-19T02:51:53.572Z,0
2023-03-19T02:53:09.706Z,0
2023-03-19T02:54:25.832Z,0
2023-03-19T02:55:41.971Z,0
2023-03-19T02:56:58.109Z,0
2023-03-19T02:58:14.239Z,0
2023-03-19T02:59:30.379Z,0
2023-03-19T03:00:46.512Z,0
2023-03-19T03:02:02.652Z,0
2023-03-19T03:03:18.784Z,0
2023-03-19T03:04:34.922Z,0
2023-03-19T03:05:51.067Z,0
2023-03-19T03:07:07.198Z,0
2023-03-19T03:08:23.316Z,0
2023-03-19T03:09:39.469Z,0
2023-03-19T03:10:55.615Z,0
2023-03-19T03:12:11.742Z,0
2023-03-19T03:13:27.876Z,0
2023-03-19T03:14:44.007Z,0
2023-03-19T03:16:00.164Z,0
2023-03-19T03:17:16.287Z,0
2023-03-19T03:18:32.426Z,0
2023-03-19T03:19:48.560Z,0
2023-03-19T03:21:04.683Z,0
2023-03-19T03:22:20.825Z,0
2023-03-19T03:23:36.964Z,0
2023-03-19T03:24:53.098Z,0
2023-03-19T03:26:09.241Z,0
2023-03-19T03:27:25.370Z,0
2023-03-19T03:28:41.524Z,0
2023-03-19T03:29:57.653Z,0
2023-03-19T03:31:13.847Z,0
2023-03-19T03:32:29.000Z,0
2023-03-19T03:33:44.286Z,0
2023-03-19T03:35:00.418Z,0
2023-03-19T03:36:16.552Z,0
2023-03-19T03:37:32.681Z,0
2023-03-19T03:38:48.841Z,0
2023-03-19T03:40:04.962Z,0
2023-03-19T03:41:21.095Z,0
2023-03-19T03:42:37.231Z,0
2023-03-19T03:43:53.364Z,0
2023-03-19T03:45:09.513Z,0
2023-03-19T03:46:25.651Z,0
2023-03-19T03:47:41.788Z,0
2023-03-19T03:48:57.912Z,0
2023-03-19T03:50:14.042Z,0
2023-03-19T03:51:30.201Z,0
2023-03-19T03:52:46.327Z,0
2023-03-19T03:54:02.464Z,0
2023-03-19T03:55:18.604Z,0
2023-03-19T03:56:34.736Z,0
2023-03-19T03:57:50.873Z,0
2023-03-19T03:59:07.010Z,0
2023-03-19T04:00:23.143Z,0
2023-03-19T04:01:39.270Z,0
2023-03-19T04:02:55.403Z,0
2023-03-19T04:04:11.561Z,0
2023-03-19T04:05:27.759Z,0
2023-03-19T04:06:42.991Z,0
2023-03-19T04:07:59.184Z,0
2023-03-19T04:09:14.382Z,0
2023-03-19T04:10:30.527Z,0
2023-03-19T04:11:46.655Z,0
2023-03-19T04:13:02.786Z,0
2023-03-19T04:14:18.947Z,0
2023-03-19T04:15:35.076Z,0
2023-03-19T04:16:51.209Z,0
2023-03-19T04:18:07.347Z,0
2023-03-19T04:19:23.477Z,0
2023-03-19T04:20:39.613Z,0
2023-03-19T04:21:55.753Z,0
2023-03-19T04:23:11.893Z,0
2023-03-19T04:24:28.022Z,0
2023-03-19T04:25:44.152Z,0
2023-03-19T04:27:00.304Z,0
2023-03-19T04:28:16.430Z,0
2023-03-19T04:29:32.573Z,0
2023-03-19T04:30:48.699Z,0
2023-03-19T04:32:04.835Z,0
2023-03-19T04:33:20.977Z,0
2023-03-19T04:34:37.105Z,0
2023-03-19T04:35:53.246Z,0
2023-03-19T04:37:09.376Z,0
2023-03-19T04:38:25.511Z,0
2023-03-19T04:39:41.673Z,0
2023-03-19T04:40:57.846Z,0
2023-03-19T04:42:13.093Z,0
2023-03-19T04:43:28.297Z,0
2023-03-19T04:44:44.442Z,0
2023-03-19T04:46:00.573Z,0
2023-03-19T04:47:16.695Z,0
2023-03-19T04:48:32.826Z,0
2023-03-19T04:49:48.992Z,0
2023-03-19T04:51:05.108Z,0
2023-03-19T04:52:21.247Z,0
2023-03-19T04:53:37.373Z,0
2023-03-19T04:54:53.521Z,0
2023-03-19T04:56:09.659Z,0
2023-03-19T04:57:25.796Z,0
2023-03-19T04:58:41.935Z,4
2023-03-19T04:59:58.062Z,4
2023-03-19T05:01:14.186Z,4
2023-03-19T05:02:30.334Z,4
2023-03-19T05:03:46.474Z,4
2023-03-19T05:05:02.611Z,8
2023-03-19T05:06:18.748Z,8
2023-03-19T05:07:34.869Z,12
2023-03-19T05:08:51.018Z,16
2023-03-19T05:10:07.151Z,16
2023-03-19T05:11:23.299Z,24
2023-03-19T05:12:39.418Z,28
2023-03-19T05:13:55.562Z,28
2023-03-19T05:15:11.756Z,36
2023-03-19T05:16:27.002Z,44
2023-03-19T05:17:42.208Z,48
2023-03-19T05:18:58.361Z,56
2023-03-19T05:20:14.496Z,60
2023-03-19T05:21:30.614Z,68
2023-03-19T05:22:46.758Z,76
2023-03-19T05:24:02.896Z,84
2023-03-19T05:25:19.024Z,92
2023-03-19T05:26:35.174Z,96
2023-03-19T05:27:51.303Z,104
2023-03-19T05:29:07.435Z,120
2023-03-19T05:30:23.567Z,128
2023-03-19T05:31:39.718Z,140
2023-03-19T05:32:55.841Z,152
2023-03-19T05:34:11.974Z,160
2023-03-19T05:35:28.125Z,172
2023-03-19T05:36:44.256Z,184
2023-03-19T05:38:00.388Z,200
2023-03-19T05:39:16.537Z,220
2023-03-19T05:40:32.666Z,244
2023-03-19T05:41:48.788Z,244
2023-03-19T05:43:04.938Z,248
2023-03-19T05:44:21.071Z,256
2023-03-19T05:45:37.203Z,268
2023-03-19T05:46:53.333Z,284
2023-03-19T05:48:09.480Z,332
2023-03-19T05:49:25.678Z,380
2023-03-19T05:50:40.916Z,440
2023-03-19T05:51:57.094Z,564
2023-03-19T05:53:12.298Z,684
2023-03-19T05:54:28.442Z,692
2023-03-19T05:55:44.578Z,696
2023-03-19T05:57:00.705Z,760
2023-03-19T05:58:16.841Z,772
2023-03-19T05:59:32.988Z,724
2023-03-19T06:00:49.137Z,676
2023-03-19T06:02:05.259Z,656
2023-03-19T06:03:21.393Z,692
2023-03-19T06:04:37.523Z,788
2023-03-19T06:05:53.653Z,864
2023-03-19T06:07:09.819Z,880
2023-03-19T06:08:25.951Z,936
2023-03-19T06:09:42.079Z,1000
2023-03-19T06:10:58.211Z,1080
2023-03-19T06:12:14.353Z,1208
2023-03-19T06:13:30.499Z,1376
2023-03-19T06:14:46.617Z,1564
2023-03-19T06:16:02.767Z,1656
2023-03-19T06:17:18.890Z,1676
2023-03-19T06:18:35.000Z,1644
2023-03-19T06:19:51.179Z,1756
2023-03-19T06:21:07.307Z,1904
2023-03-19T06:22:23.439Z,2012
2023-03-19T06:23:39.575Z,2012
2023-03-19T06:24:55.774Z,2060
2023-03-19T06:26:11.015Z,2128
2023-03-19T06:27:26.236Z,2112
2023-03-19T06:28:42.368Z,2092
2023-03-19T06:29:58.508Z,1996
2023-03-19T06:31:14.653Z,1876
2023-03-19T06:32:30.773Z,1780
2023-03-19T06:33:46.908Z,1720
2023-03-19T06:35:03.041Z,1752
2023-03-19T06:36:19.188Z,1780
2023-03-19T06:37:35.338Z,1860
2023-03-19T06:38:51.466Z,1992
2023-03-19T06:40:07.588Z,2064
2023-03-19T06:41:23.736Z,2032
2023-03-19T06:42:39.875Z,2072
2023-03-19T06:43:56.013Z,2072
2023-03-19T06:45:12.144Z,2080
2023-03-19T06:46:28.283Z,2040
2023-03-19T06:47:44.408Z,1900
2023-03-19T06:49:00.558Z,1788
2023-03-19T06:50:16.684Z,1748
2023-03-19T06:51:32.830Z,1796
2023-03-19T06:52:48.966Z,1800
2023-03-19T06:54:05.092Z,1892
2023-03-19T06:55:21.235Z,1896
2023-03-19T06:56:37.368Z,2012
2023-03-19T06:57:53.517Z,2184
2023-03-19T06:59:09.693Z,2328
2023-03-19T07:00:24.939Z,2200
2023-03-19T07:01:40.151Z,2216
2023-03-19T07:02:55.293Z,2168
2023-03-19T07:04:11.448Z,2228
2023-03-19T07:05:27.582Z,2316
2023-03-19T07:06:43.714Z,2484
2023-03-19T07:07:59.842Z,2768
2023-03-19T07:09:15.977Z,3132
2023-03-19T07:10:32.133Z,3568
2023-03-19T07:11:48.264Z,4108
2023-03-19T07:13:04.402Z,4316
2023-03-19T07:14:20.525Z,4188
2023-03-19T07:15:36.661Z,3924
2023-03-19T07:16:52.803Z,3688
2023-03-19T07:18:08.936Z,3632
2023-03-19T07:19:25.069Z,3640
2023-03-19T07:20:41.199Z,3788
2023-03-19T07:21:57.333Z,4184
2023-03-19T07:23:13.491Z,4496
2023-03-19T07:24:29.612Z,4652
2023-03-19T07:25:45.756Z,4380
2023-03-19T07:27:01.878Z,3680
2023-03-19T07:28:18.014Z,3320
2023-03-19T07:29:34.161Z,3504
2023-03-19T07:30:50.297Z,13920
2023-03-19T07:32:06.444Z,15212
2023-03-19T07:33:22.567Z,10400
2023-03-19T07:34:38.703Z,11740
2023-03-19T07:35:54.847Z,18720
2023-03-19T07:37:10.986Z,18720
2023-03-19T07:38:27.111Z,19840
2023-03-19T07:39:43.254Z,6632
2023-03-19T07:40:59.377Z,4336
2023-03-19T07:42:15.521Z,3888
2023-03-19T07:43:31.661Z,3904
2023-03-19T07:44:47.803Z,3776
2023-03-19T07:46:03.929Z,3440
2023-03-19T07:47:20.061Z,3072
2023-03-19T07:48:36.206Z,2984
2023-03-19T07:49:52.410Z,3052
2023-03-19T07:51:07.635Z,4020
2023-03-19T07:52:22.859Z,3920
2023-03-19T07:53:38.973Z,3192
2023-03-19T07:54:55.112Z,3300
2023-03-19T07:56:11.241Z,3504
2023-03-19T07:57:27.391Z,3252
2023-03-19T07:58:43.522Z,2968
2023-03-19T07:59:59.662Z,2572
2023-03-19T08:01:15.806Z,2392
2023-03-19T08:02:31.940Z,2268
2023-03-19T08:03:48.062Z,2216
2023-03-19T08:05:04.218Z,2108
2023-03-19T08:06:20.353Z,1748
2023-03-19T08:07:36.469Z,1464
2023-03-19T08:08:52.602Z,1252
2023-03-19T08:10:08.747Z,1128
2023-03-19T08:11:24.885Z,1060
2023-03-19T08:12:41.022Z,1100
2023-03-19T08:13:57.169Z,1220
2023-03-19T08:15:13.302Z,1336
2023-03-19T08:16:29.434Z,1432
2023-03-19T08:17:45.567Z,1476
2023-03-19T08:19:01.711Z,1492
2023-03-19T08:20:17.841Z,1584
2023-03-19T08:21:33.966Z,1796
2023-03-19T08:22:50.112Z,2076
2023-03-19T08:24:06.317Z,2248
2023-03-19T08:25:21.545Z,2116
2023-03-19T08:26:37.743Z,1884
2023-03-19T08:27:52.953Z,1760
2023-03-19T08:29:09.079Z,1604
2023-03-19T08:30:25.211Z,1464
2023-03-19T08:31:41.343Z,1316
2023-03-19T08:32:57.488Z,1148
2023-03-19T08:34:13.626Z,1048
2023-03-19T08:35:29.756Z,1020
2023-03-19T08:36:45.906Z,1060
2023-03-19T08:38:02.030Z,1108
2023-03-19T08:39:18.157Z,1204
2023-03-19T08:40:34.319Z,1408
2023-03-19T08:41:50.451Z,1748
2023-03-19T08:43:06.573Z,2252
2023-03-19T08:44:22.706Z,2868
2023-03-19T08:45:38.846Z,3632
2023-03-19T08:46:54.995Z,4656
2023-03-19T08:48:11.125Z,5820
2023-03-19T08:49:27.268Z,7116
2023-03-19T08:50:43.394Z,8224
2023-03-19T08:51:59.535Z,7828
2023-03-19T08:53:15.684Z,9208
2023-03-19T08:54:31.808Z,6296
2023-03-19T08:55:47.934Z,5432
2023-03-19T08:57:04.081Z,5328
2023-03-19T08:58:20.211Z,4836
2023-03-19T08:59:36.420Z,3792
2023-03-19T09:00:51.647Z,2972
2023-03-19T09:02:06.866Z,2524
2023-03-19T09:03:23.008Z,2340
2023-03-19T09:04:39.138Z,2280
2023-03-19T09:05:55.278Z,2536
2023-03-19T09:07:11.405Z,3632
2023-03-19T09:08:27.542Z,5472
2023-03-19T09:09:43.683Z,6408
2023-03-19T09:10:59.812Z,7540
2023-03-19T09:12:15.943Z,9508
2023-03-19T09:13:32.087Z,10588
2023-03-19T09:14:48.223Z,9468
2023-03-19T09:16:04.368Z,7500
2023-03-19T09:17:20.506Z,6552
2023-03-19T09:18:36.630Z,6044
2023-03-19T09:19:52.761Z,5428
2023-03-19T09:21:08.902Z,4392
2023-03-19T09:22:25.044Z,3724
2023-03-19T09:23:41.174Z,3728
2023-03-19T09:24:57.309Z,3904
2023-03-19T09:26:13.453Z,4108
2023-03-19T09:27:29.588Z,4116
2023-03-19T09:28:45.744Z,3688
2023-03-19T09:30:01.871Z,3280
2023-03-19T09:31:17.998Z,2956
2023-03-19T09:32:34.131Z,2624
2023-03-19T09:33:50.330Z,2536
2023-03-19T09:35:05.559Z,2432
2023-03-19T09:36:20.772Z,2336
2023-03-19T09:37:36.909Z,2364
2023-03-19T09:38:53.038Z,2560
2023-03-19T09:40:09.172Z,2656
2023-03-19T09:41:25.309Z,2592
2023-03-19T09:42:41.446Z,2492
2023-03-19T09:43:57.580Z,2412
2023-03-19T09:45:13.733Z,2376
2023-03-19T09:46:29.851Z,2432
2023-03-19T09:47:45.994Z,2568
2023-03-19T09:49:02.118Z,2748
2023-03-19T09:50:18.268Z,2936
2023-03-19T09:51:34.399Z,3132
2023-03-19T09:52:50.539Z,3432
2023-03-19T09:54:06.680Z,3736
2023-03-19T09:55:22.818Z,4104
2023-03-19T09:56:38.933Z,4476
2023-03-19T09:57:55.086Z,4552
2023-03-19T09:59:11.219Z,4636
2023-03-19T10:00:27.351Z,4524
2023-03-19T10:01:43.486Z,4124
2023-03-19T10:02:59.621Z,3752
2023-03-19T10:04:15.777Z,3484
2023-03-19T10:05:31.896Z,3300
2023-03-19T10:06:48.033Z,3128
2023-03-19T10:08:04.238Z,3100
2023-03-19T10:09:19.474Z,3196
2023-03-19T10:10:35.663Z,3432
2023-03-19T10:11:50.859Z,3860
2023-03-19T10:13:06.992Z,5072
2023-03-19T10:14:23.141Z,6700
2023-03-19T10:15:39.288Z,8332
2023-03-19T10:16:55.412Z,9812
2023-03-19T10:18:11.542Z,10400
2023-03-19T10:19:27.672Z,11804
2023-03-19T10:20:43.826Z,16348
2023-03-19T10:21:59.958Z,16512
2023-03-19T10:23:16.100Z,15876
2023-03-19T10:24:32.232Z,20864
2023-03-19T10:25:48.371Z,20160
2023-03-19T10:27:04.506Z,15160
2023-03-19T10:28:20.648Z,7972
2023-03-19T10:29:36.779Z,9356
2023-03-19T10:30:52.917Z,21120
2023-03-19T10:32:09.034Z,28672
2023-03-19T10:33:25.182Z,7492
2023-03-19T10:34:41.321Z,14808
2023-03-19T10:35:57.459Z,11208
2023-03-19T10:37:13.596Z,33088
2023-03-19T10:38:29.730Z,35424
2023-03-19T10:39:45.881Z,39072
2023-03-19T10:41:02.007Z,41088
2023-03-19T10:42:18.131Z,43232
2023-03-19T10:43:34.338Z,44736
2023-03-19T10:44:49.586Z,46400
2023-03-19T10:46:04.807Z,47712
2023-03-19T10:47:19.954Z,50240
2023-03-19T10:48:36.104Z,26944
2023-03-19T10:49:52.241Z,19936
2023-03-19T10:51:08.356Z,25600
2023-03-19T10:52:24.493Z,31232
2023-03-19T10:53:40.630Z,49888
2023-03-19T10:54:56.784Z,13128
2023-03-19T10:56:12.918Z,29760
2023-03-19T10:57:29.045Z,27392
2023-03-19T10:58:45.189Z,25728
2023-03-19T11:00:01.310Z,30272
2023-03-19T11:01:17.473Z,32928
2023-03-19T11:02:33.602Z,27104
2023-03-19T11:03:49.722Z,29504
2023-03-19T11:05:05.874Z,18784
2023-03-19T11:06:22.002Z,25920
2023-03-19T11:07:38.144Z,36160
2023-03-19T11:08:54.287Z,21600
2023-03-19T11:10:10.415Z,20832
2023-03-19T11:11:26.549Z,10904
2023-03-19T11:12:42.680Z,10028
2023-03-19T11:13:58.826Z,8104
2023-03-19T11:15:14.963Z,5512
2023-03-19T11:16:31.099Z,5376
2023-03-19T11:17:47.229Z,5640
2023-03-19T11:19:03.361Z,5380
2023-03-19T11:20:19.511Z,5680
2023-03-19T11:21:35.645Z,6472
2023-03-19T11:22:51.773Z,6632
2023-03-19T11:24:07.920Z,6788
2023-03-19T11:25:24.056Z,7568
2023-03-19T11:26:40.204Z,9480
2023-03-19T11:27:56.337Z,10148
2023-03-19T11:29:12.471Z,10696
2023-03-19T11:30:28.600Z,11404
2023-03-19T11:31:44.735Z,12312
2023-03-19T11:33:00.883Z,13028
2023-03-19T11:34:17.079Z,11836
2023-03-19T11:35:32.300Z,10304
2023-03-19T11:36:47.521Z,9568
2023-03-19T11:38:03.640Z,9348
2023-03-19T11:39:19.790Z,8752
2023-03-19T11:40:35.921Z,8536
2023-03-19T11:41:52.042Z,8120
2023-03-19T11:43:08.192Z,7748
2023-03-19T11:44:24.335Z,7704
2023-03-19T11:45:40.469Z,7768
2023-03-19T11:46:56.598Z,7940
2023-03-19T11:48:12.726Z,8076
2023-03-19T11:49:28.874Z,8060
2023-03-19T11:50:45.005Z,8172
2023-03-19T11:52:01.148Z,8228
2023-03-19T11:53:17.285Z,8260
2023-03-19T11:54:33.413Z,8272
2023-03-19T11:55:49.569Z,8228
2023-03-19T11:57:05.694Z,8188
2023-03-19T11:58:21.829Z,8180
2023-03-19T11:59:37.957Z,8228
2023-03-19T12:00:54.088Z,8104
2023-03-19T12:02:10.248Z,7932
2023-03-19T12:03:26.382Z,8136
2023-03-19T12:04:42.502Z,8040
2023-03-19T12:05:58.650Z,7716
2023-03-19T12:07:14.767Z,7500
2023-03-19T12:08:30.988Z,7260
2023-03-19T12:09:46.222Z,6844
2023-03-19T12:11:01.431Z,6336
2023-03-19T12:12:17.564Z,5992
2023-03-19T12:13:33.705Z,5916
2023-03-19T12:14:49.843Z,5796
2023-03-19T12:16:05.958Z,5600
2023-03-19T12:17:22.096Z,5428
2023-03-19T12:18:38.258Z,5296
2023-03-19T12:19:54.378Z,5264
2023-03-19T12:21:10.512Z,5312
2023-03-19T12:22:26.649Z,5432
2023-03-19T12:23:42.791Z,5448
2023-03-19T12:24:58.929Z,5328
2023-03-19T12:26:15.068Z,5400
2023-03-19T12:27:31.202Z,5388
2023-03-19T12:28:47.327Z,5352
2023-03-19T12:30:03.459Z,5368
2023-03-19T12:31:19.608Z,5500
2023-03-19T12:32:35.740Z,5644
2023-03-19T12:33:51.892Z,5704
2023-03-19T12:35:08.016Z,5772
2023-03-19T12:36:24.148Z,5872
2023-03-19T12:37:40.302Z,5876
2023-03-19T12:38:56.436Z,5840
2023-03-19T12:40:12.573Z,5760
2023-03-19T12:41:28.699Z,5600
2023-03-19T12:42:44.885Z,5472
2023-03-19T12:44:00.136Z,5184
2023-03-19T12:45:16.317Z,5084
2023-03-19T12:46:31.533Z,4496
2023-03-19T12:47:47.660Z,4808
2023-03-19T12:49:03.805Z,4884
2023-03-19T12:50:19.938Z,4832
2023-03-19T12:51:36.074Z,4616
2023-03-19T12:52:52.210Z,4348
2023-03-19T12:54:08.345Z,4108
2023-03-19T12:55:24.495Z,4032
2023-03-19T12:56:40.611Z,3804
2023-03-19T12:57:56.744Z,3640
2023-03-19T12:59:12.881Z,3536
2023-03-19T13:00:29.041Z,3256
2023-03-19T13:01:45.165Z,3212
2023-03-19T13:03:01.308Z,3344
2023-03-19T13:04:17.429Z,3368
2023-03-19T13:05:33.563Z,3488
2023-03-19T13:06:49.717Z,3452
2023-03-19T13:08:05.841Z,3420
2023-03-19T13:09:21.976Z,3580
2023-03-19T13:10:38.111Z,3804
2023-03-19T13:11:54.253Z,3860
2023-03-19T13:13:10.401Z,3900
2023-03-19T13:14:26.531Z,4004
2023-03-19T13:15:42.655Z,4096
2023-03-19T13:16:58.786Z,3836
2023-03-19T13:18:14.996Z,3884
2023-03-19T13:19:30.221Z,3724
2023-03-19T13:20:45.430Z,3528
2023-03-19T13:22:01.563Z,3368
2023-03-19T13:23:17.713Z,3268
2023-03-19T13:24:33.858Z,3236
2023-03-19T13:25:49.977Z,3092
2023-03-19T13:27:06.119Z,3164
2023-03-19T13:28:22.242Z,3208
2023-03-19T13:29:38.392Z,3124
2023-03-19T13:30:54.531Z,3404
2023-03-19T13:32:10.671Z,3740
2023-03-19T13:33:26.797Z,3640
2023-03-19T13:34:42.928Z,3576
2023-03-19T13:35:59.077Z,3600
2023-03-19T13:37:15.201Z,3708
2023-03-19T13:38:31.336Z,3568
2023-03-19T13:39:47.486Z,3576
2023-03-19T13:41:03.620Z,3604
2023-03-19T13:42:19.766Z,3632
2023-03-19T13:43:35.890Z,3976
2023-03-19T13:44:52.017Z,4244
2023-03-19T13:46:08.155Z,4220
2023-03-19T13:47:24.294Z,4204
2023-03-19T13:48:40.440Z,4232
2023-03-19T13:49:56.577Z,4312
2023-03-19T13:51:12.713Z,4356
2023-03-19T13:52:28.890Z,4340
2023-03-19T13:53:44.134Z,4220
2023-03-19T13:54:59.352Z,4052
2023-03-19T13:56:14.496Z,3844
2023-03-19T13:57:30.646Z,3700
2023-03-19T13:58:46.773Z,3644
2023-03-19T14:00:02.906Z,3600
2023-03-19T14:01:19.052Z,3556
2023-03-19T14:02:35.169Z,3484
2023-03-19T14:03:51.330Z,3536
2023-03-19T14:05:07.450Z,3592
2023-03-19T14:06:23.594Z,3672
2023-03-19T14:07:39.723Z,3888
2023-03-19T14:08:55.867Z,4148
2023-03-19T14:10:12.014Z,4152
2023-03-19T14:11:28.132Z,4080
2023-03-19T14:12:44.267Z,3988
2023-03-19T14:14:00.402Z,3868
2023-03-19T14:15:16.542Z,3700
2023-03-19T14:16:32.679Z,3520
2023-03-19T14:17:48.812Z,3356
2023-03-19T14:19:04.954Z,3200
2023-03-19T14:20:21.096Z,3252
2023-03-19T14:21:37.222Z,3376
2023-03-19T14:22:53.366Z,3336
2023-03-19T14:24:09.509Z,3396
2023-03-19T14:25:25.630Z,3508
2023-03-19T14:26:41.776Z,3180
2023-03-19T14:27:57.905Z,2860
2023-03-19T14:29:14.041Z,2612
2023-03-19T14:30:30.181Z,2508
2023-03-19T14:31:46.322Z,2328
2023-03-19T14:33:02.443Z,2204
2023-03-19T14:34:18.579Z,2216
2023-03-19T14:35:34.736Z,2116
2023-03-19T14:36:50.863Z,2168
2023-03-19T14:38:06.986Z,2036
2023-03-19T14:39:23.133Z,1848
2023-03-19T14:40:39.255Z,1676
2023-03-19T14:41:55.406Z,1664
2023-03-19T14:43:11.611Z,1768
2023-03-19T14:44:26.837Z,1760
2023-03-19T14:45:42.051Z,1800
2023-03-19T14:46:58.182Z,1884
2023-03-19T14:48:14.310Z,1788
2023-03-19T14:49:30.448Z,1696
2023-03-19T14:50:46.575Z,1568
2023-03-19T14:52:02.728Z,1480
2023-03-19T14:53:18.864Z,1388
2023-03-19T14:54:34.998Z,1248
2023-03-19T14:55:51.125Z,1256
2023-03-19T14:57:07.252Z,1356
2023-03-19T14:58:23.410Z,1448
2023-03-19T14:59:39.532Z,1556
2023-03-19T15:00:55.679Z,1716
2023-03-19T15:02:11.800Z,1808
2023-03-19T15:03:27.941Z,1856
2023-03-19T15:04:44.091Z,1876
2023-03-19T15:06:00.212Z,1724
2023-03-19T15:07:16.349Z,1536
2023-03-19T15:08:32.487Z,1584
2023-03-19T15:09:48.625Z,1556
2023-03-19T15:11:04.777Z,1628
2023-03-19T15:12:20.894Z,1792
2023-03-19T15:13:37.029Z,1924
2023-03-19T15:14:53.164Z,2052
2023-03-19T15:16:09.305Z,2104
2023-03-19T15:17:25.501Z,2224
2023-03-19T15:18:40.779Z,2272
2023-03-19T15:19:56.967Z,2268
2023-03-19T15:21:12.172Z,2276
2023-03-19T15:22:28.299Z,2364
2023-03-19T15:23:44.443Z,2372
2023-03-19T15:25:00.576Z,2364
2023-03-19T15:26:16.691Z,2352
2023-03-19T15:27:32.846Z,2344
2023-03-19T15:28:48.992Z,2304
2023-03-19T15:30:05.109Z,2288
2023-03-19T15:31:21.256Z,2276
2023-03-19T15:32:37.389Z,2300
2023-03-19T15:33:53.521Z,2340
2023-03-19T15:35:09.665Z,2376
2023-03-19T15:36:25.796Z,2444
2023-03-19T15:37:41.934Z,2500
2023-03-19T15:38:58.055Z,2556
2023-03-19T15:40:14.206Z,2576
2023-03-19T15:41:30.335Z,2692
2023-03-19T15:42:46.478Z,2708
2023-03-19T15:44:02.615Z,2656
2023-03-19T15:45:18.737Z,2588
2023-03-19T15:46:34.891Z,2480
2023-03-19T15:47:51.026Z,2368
2023-03-19T15:49:07.156Z,2212
2023-03-19T15:50:23.289Z,2080
2023-03-19T15:51:39.434Z,1992
2023-03-19T15:52:55.645Z,1912
2023-03-19T15:54:10.875Z,1864
2023-03-19T15:55:26.073Z,1836
2023-03-19T15:56:42.216Z,1812
2023-03-19T15:57:58.351Z,1748
2023-03-19T15:59:14.485Z,1628
2023-03-19T16:00:30.632Z,1484
2023-03-19T16:01:46.765Z,1272
2023-03-19T16:03:02.901Z,1064
2023-03-19T16:04:19.036Z,912
2023-03-19T16:05:35.172Z,812
2023-03-19T16:06:51.317Z,784
2023-03-19T16:08:07.438Z,828
2023-03-19T16:09:23.587Z,920
2023-03-19T16:10:39.721Z,1052
2023-03-19T16:11:55.861Z,1148
2023-03-19T16:13:11.992Z,1176
2023-03-19T16:14:28.126Z,1172
2023-03-19T16:15:44.261Z,1156
2023-03-19T16:17:00.401Z,1148
2023-03-19T16:18:16.533Z,1124
2023-03-19T16:19:32.667Z,1104
2023-03-19T16:20:48.810Z,1072
2023-03-19T16:22:04.960Z,1048
2023-03-19T16:23:21.094Z,1048
2023-03-19T16:24:37.216Z,1048
2023-03-19T16:25:53.353Z,1040
2023-03-19T16:27:09.545Z,1016
2023-03-19T16:28:24.787Z,988
2023-03-19T16:29:39.986Z,956
2023-03-19T16:30:56.124Z,912
2023-03-19T16:32:12.269Z,848
2023-03-19T16:33:28.395Z,792
2023-03-19T16:34:44.536Z,740
2023-03-19T16:36:00.663Z,700
2023-03-19T16:37:16.810Z,672
2023-03-19T16:38:32.958Z,632
2023-03-19T16:39:49.085Z,584
2023-03-19T16:41:05.210Z,536
2023-03-19T16:42:21.352Z,500
2023-03-19T16:43:37.491Z,472
2023-03-19T16:44:53.641Z,448
2023-03-19T16:46:09.756Z,424
2023-03-19T16:47:25.895Z,400
2023-03-19T16:48:42.025Z,372
2023-03-19T16:49:58.167Z,356
2023-03-19T16:51:14.321Z,348
2023-03-19T16:52:30.453Z,336
2023-03-19T16:53:46.569Z,320
2023-03-19T16:55:02.715Z,300
2023-03-19T16:56:18.844Z,276
2023-03-19T16:57:34.983Z,256
2023-03-19T16:58:51.130Z,240
2023-03-19T17:00:07.250Z,224
2023-03-19T17:01:23.460Z,208
2023-03-19T17:02:38.684Z,196
2023-03-19T17:03:54.873Z,184
2023-03-19T17:05:10.081Z,176
2023-03-19T17:06:26.215Z,164
2023-03-19T17:07:42.372Z,152
2023-03-19T17:08:58.508Z,148
2023-03-19T17:10:14.633Z,136
2023-03-19T17:11:30.771Z,128
2023-03-19T17:12:46.910Z,120
2023-03-19T17:14:03.056Z,112
2023-03-19T17:15:19.184Z,100
2023-03-19T17:16:35.308Z,92
2023-03-19T17:17:51.456Z,84
2023-03-19T17:19:07.591Z,80
2023-03-19T17:20:23.724Z,76
2023-03-19T17:21:39.874Z,64
2023-03-19T17:22:56.000Z,60
2023-03-19T17:24:12.126Z,56
2023-03-19T17:25:28.269Z,48
2023-03-19T17:26:44.416Z,44